Thedford, Nebraska
Current Conditions -  °F | °C
As of 4:15 AM on Thursday 29 Jan 2015 (Local Time) from KTIF Reporting Station
Overcast Overcast  
Wind Chill: 25°   Ceiling: 3100
Heat Index: 36°   Visibility: 10mi
Dew Point: 27°   Wind: 18mph
Humidity: 71%   Direction: 330°NNW
Pressure: 30.32"   Gusts: 29mph
Location:  41.98°N, 100.58°W
Report Text: KTIF 291015Z AUTO 33016G25KT 10SM OVC031 02/M03 A3032 RMK AO2 T00211026
Loading
Personal Weather Stations






























Interactive Weather Map New forecast layout! Learn more

10-Day Weather Forecast

Advertisements
Track Severe Weather on mobile